sensor_id;sensor_type;location;lat;lon;timestamp;P1;durP1;ratioP1;P2;durP2;ratioP2
4428;SDS011;2227;47.810;8.810;2022-11-15T04:46:06;5.95;;;2.72;;
4428;SDS011;2227;47.810;8.810;2022-11-15T04:48:33;5.78;;;2.53;;
4428;SDS011;2227;47.810;8.810;2022-11-15T04:50:59;4.75;;;2.60;;
4428;SDS011;2227;47.810;8.810;2022-11-15T04:53:26;4.40;;;2.67;;
4428;SDS011;2227;47.810;8.810;2022-11-15T04:55:53;4.75;;;3.03;;
4428;SDS011;2227;47.810;8.810;2022-11-15T04:58:20;5.88;;;2.88;;
4428;SDS011;2227;47.810;8.810;2022-11-15T05:00:47;6.55;;;4.50;;
4428;SDS011;2227;47.810;8.810;2022-11-15T05:03:13;7.40;;;4.50;;
4428;SDS011;2227;47.810;8.810;2022-11-15T05:05:59;6.38;;;3.70;;
4428;SDS011;2227;47.810;8.810;2022-11-15T05:08:26;8.60;;;3.53;;
4428;SDS011;2227;47.810;8.810;2022-11-15T05:10:53;5.13;;;3.30;;
4428;SDS011;2227;47.810;8.810;2022-11-15T05:13:21;5.80;;;3.45;;
4428;SDS011;2227;47.810;8.810;2022-11-15T05:15:48;5.82;;;4.15;;
4428;SDS011;2227;47.810;8.810;2022-11-15T05:18:15;6.65;;;4.20;;
4428;SDS011;2227;47.810;8.810;2022-11-15T05:20:48;8.07;;;3.92;;
4428;SDS011;2227;47.810;8.810;2022-11-15T05:23:15;6.88;;;4.03;;
4428;SDS011;2227;47.810;8.810;2022-11-15T05:25:41;7.03;;;4.65;;
4428;SDS011;2227;47.810;8.810;2022-11-15T05:28:08;8.02;;;4.88;;
4428;SDS011;2227;47.810;8.810;2022-11-15T05:30:35;8.15;;;3.80;;
4428;SDS011;2227;47.810;8.810;2022-11-15T05:33:02;6.97;;;4.43;;
4428;SDS011;2227;47.810;8.810;2022-11-15T05:35:30;8.95;;;4.97;;
4428;SDS011;2227;47.810;8.810;2022-11-15T05:38:06;7.15;;;4.00;;
4428;SDS011;2227;47.810;8.810;2022-11-15T05:40:33;6.65;;;3.63;;
4428;SDS011;2227;47.810;8.810;2022-11-15T05:43:01;6.40;;;3.60;;
4428;SDS011;2227;47.810;8.810;2022-11-15T05:45:29;5.80;;;3.80;;
4428;SDS011;2227;47.810;8.810;2022-11-15T05:47:59;7.68;;;4.00;;
4428;SDS011;2227;47.810;8.810;2022-11-15T05:50:30;5.55;;;3.40;;
4428;SDS011;2227;47.810;8.810;2022-11-15T05:52:57;6.90;;;3.65;;
4428;SDS011;2227;47.810;8.810;2022-11-15T05:55:30;7.13;;;3.67;;
4428;SDS011;2227;47.810;8.810;2022-11-15T05:57:57;6.32;;;3.55;;
4428;SDS011;2227;47.810;8.810;2022-11-15T06:00:24;8.82;;;4.30;;
4428;SDS011;2227;47.810;8.810;2022-11-15T06:02:51;7.35;;;3.83;;
4428;SDS011;2227;47.810;8.810;2022-11-15T06:05:17;8.70;;;4.20;;
4428;SDS011;2227;47.810;8.810;2022-11-15T06:07:44;7.35;;;3.90;;
4428;SDS011;2227;47.810;8.810;2022-11-15T06:10:11;7.95;;;4.15;;
4428;SDS011;2227;47.810;8.810;2022-11-15T06:12:38;10.27;;;5.28;;
4428;SDS011;2227;47.810;8.810;2022-11-15T06:15:04;8.38;;;5.30;;
4428;SDS011;2227;47.810;8.810;2022-11-15T06:17:32;9.07;;;5.45;;
4428;SDS011;2227;47.810;8.810;2022-11-15T06:19:58;6.97;;;4.65;;
4428;SDS011;2227;47.810;8.810;2022-11-15T06:22:25;7.97;;;5.00;;
4428;SDS011;2227;47.810;8.810;2022-11-15T06:24:52;8.48;;;4.63;;
4428;SDS011;2227;47.810;8.810;2022-11-15T06:27:18;10.07;;;5.20;;
4428;SDS011;2227;47.810;8.810;2022-11-15T06:29:45;8.82;;;4.75;;
4428;SDS011;2227;47.810;8.810;2022-11-15T06:32:12;9.45;;;4.97;;
4428;SDS011;2227;47.810;8.810;2022-11-15T06:34:38;9.32;;;5.00;;
4428;SDS011;2227;47.810;8.810;2022-11-15T06:37:05;8.60;;;5.78;;
4428;SDS011;2227;47.810;8.810;2022-11-15T06:39:32;8.18;;;5.50;;
4428;SDS011;2227;47.810;8.810;2022-11-15T06:41:59;11.55;;;5.63;;
4428;SDS011;2227;47.810;8.810;2022-11-15T06:44:25;12.00;;;5.20;;
4428;SDS011;2227;47.810;8.810;2022-11-15T06:46:52;17.17;;;6.20;;
4428;SDS011;2227;47.810;8.810;2022-11-15T06:49:19;10.18;;;5.18;;
4428;SDS011;2227;47.810;8.810;2022-11-15T06:51:45;10.32;;;4.78;;
4428;SDS011;2227;47.810;8.810;2022-11-15T06:54:12;11.07;;;5.32;;
4428;SDS011;2227;47.810;8.810;2022-11-15T06:56:39;11.30;;;4.95;;
4428;SDS011;2227;47.810;8.810;2022-11-15T06:59:05;8.00;;;4.75;;
4428;SDS011;2227;47.810;8.810;2022-11-15T07:01:32;9.80;;;5.35;;
4428;SDS011;2227;47.810;8.810;2022-11-15T07:03:59;10.18;;;6.03;;
4428;SDS011;2227;47.810;8.810;2022-11-15T07:06:26;10.45;;;5.38;;
4428;SDS011;2227;47.810;8.810;2022-11-15T07:08:53;8.73;;;4.55;;
4428;SDS011;2227;47.810;8.810;2022-11-15T07:11:19;8.27;;;4.18;;
4428;SDS011;2227;47.810;8.810;2022-11-15T07:13:46;7.97;;;3.97;;
4428;SDS011;2227;47.810;8.810;2022-11-15T07:16:13;8.90;;;4.53;;
4428;SDS011;2227;47.810;8.810;2022-11-15T07:18:40;6.60;;;3.65;;
4428;SDS011;2227;47.810;8.810;2022-11-15T07:21:07;8.57;;;5.22;;
4428;SDS011;2227;47.810;8.810;2022-11-15T07:23:36;7.93;;;5.15;;
4428;SDS011;2227;47.810;8.810;2022-11-15T07:26:04;8.02;;;4.57;;
4428;SDS011;2227;47.810;8.810;2022-11-15T07:28:32;9.50;;;5.28;;
4428;SDS011;2227;47.810;8.810;2022-11-15T07:31:01;10.38;;;5.20;;
4428;SDS011;2227;47.810;8.810;2022-11-15T07:33:29;8.48;;;5.63;;
4428;SDS011;2227;47.810;8.810;2022-11-15T07:36:00;11.07;;;5.70;;
4428;SDS011;2227;47.810;8.810;2022-11-15T07:38:29;13.43;;;7.45;;
4428;SDS011;2227;47.810;8.810;2022-11-15T07:41:00;15.73;;;8.25;;
4428;SDS011;2227;47.810;8.810;2022-11-15T07:43:27;10.90;;;7.40;;
4428;SDS011;2227;47.810;8.810;2022-11-15T07:45:56;10.70;;;6.80;;
4428;SDS011;2227;47.810;8.810;2022-11-15T07:48:24;10.63;;;6.30;;
4428;SDS011;2227;47.810;8.810;2022-11-15T07:51:10;10.30;;;5.32;;
4428;SDS011;2227;47.810;8.810;2022-11-15T07:53:39;9.07;;;6.18;;
4428;SDS011;2227;47.810;8.810;2022-11-15T07:56:07;9.25;;;5.70;;
4428;SDS011;2227;47.810;8.810;2022-11-15T07:58:35;9.15;;;5.00;;
4428;SDS011;2227;47.810;8.810;2022-11-15T08:01:03;11.02;;;5.38;;
4428;SDS011;2227;47.810;8.810;2022-11-15T08:03:31;8.60;;;5.30;;
4428;SDS011;2227;47.810;8.810;2022-11-15T08:05:59;10.23;;;6.03;;
4428;SDS011;2227;47.810;8.810;2022-11-15T08:08:26;9.55;;;5.30;;
4428;SDS011;2227;47.810;8.810;2022-11-15T08:10:53;10.32;;;6.57;;
4428;SDS011;2227;47.810;8.810;2022-11-15T08:13:20;9.40;;;6.53;;
4428;SDS011;2227;47.810;8.810;2022-11-15T08:15:47;8.98;;;5.90;;
4428;SDS011;2227;47.810;8.810;2022-11-15T08:18:21;10.15;;;6.72;;
4428;SDS011;2227;47.810;8.810;2022-11-15T08:20:48;9.50;;;6.72;;
4428;SDS011;2227;47.810;8.810;2022-11-15T08:23:14;12.65;;;8.57;;
4428;SDS011;2227;47.810;8.810;2022-11-15T08:25:41;25.27;;;18.60;;
4428;SDS011;2227;47.810;8.810;2022-11-15T08:28:09;25.80;;;18.52;;
4428;SDS011;2227;47.810;8.810;2022-11-15T08:30:37;20.67;;;16.13;;
4428;SDS011;2227;47.810;8.810;2022-11-15T08:33:12;18.92;;;13.75;;
4428;SDS011;2227;47.810;8.810;2022-11-15T08:35:41;13.10;;;8.95;;
4428;SDS011;2227;47.810;8.810;2022-11-15T08:38:09;8.68;;;6.03;;
4428;SDS011;2227;47.810;8.810;2022-11-15T08:40:36;14.65;;;7.70;;
4428;SDS011;2227;47.810;8.810;2022-11-15T08:43:03;11.85;;;9.25;;
4428;SDS011;2227;47.810;8.810;2022-11-15T08:45:30;11.13;;;8.02;;
4428;SDS011;2227;47.810;8.810;2022-11-15T08:47:57;10.48;;;7.38;;
4428;SDS011;2227;47.810;8.810;2022-11-15T08:50:27;10.25;;;7.45;;
4428;SDS011;2227;47.810;8.810;2022-11-15T08:52:54;11.00;;;6.68;;
4428;SDS011;2227;47.810;8.810;2022-11-15T08:55:21;7.80;;;5.63;;
4428;SDS011;2227;47.810;8.810;2022-11-15T08:57:50;8.63;;;5.25;;
4428;SDS011;2227;47.810;8.810;2022-11-15T09:00:17;7.88;;;5.70;;
4428;SDS011;2227;47.810;8.810;2022-11-15T09:02:46;8.68;;;5.68;;
4428;SDS011;2227;47.810;8.810;2022-11-15T09:05:12;8.05;;;5.07;;
4428;SDS011;2227;47.810;8.810;2022-11-15T09:07:41;7.43;;;5.25;;
4428;SDS011;2227;47.810;8.810;2022-11-15T09:10:08;9.43;;;5.57;;
4428;SDS011;2227;47.810;8.810;2022-11-15T09:12:34;7.25;;;5.20;;
4428;SDS011;2227;47.810;8.810;2022-11-15T09:15:01;6.68;;;4.72;;
4428;SDS011;2227;47.810;8.810;2022-11-15T09:17:29;7.30;;;4.60;;
4428;SDS011;2227;47.810;8.810;2022-11-15T09:19:55;7.13;;;4.90;;
4428;SDS011;2227;47.810;8.810;2022-11-15T09:22:22;8.48;;;4.88;;
4428;SDS011;2227;47.810;8.810;2022-11-15T09:24:49;5.95;;;4.20;;
4428;SDS011;2227;47.810;8.810;2022-11-15T09:27:16;10.32;;;4.32;;
4428;SDS011;2227;47.810;8.810;2022-11-15T09:29:42;11.38;;;5.68;;
4428;SDS011;2227;47.810;8.810;2022-11-15T09:32:09;8.65;;;5.25;;
4428;SDS011;2227;47.810;8.810;2022-11-15T09:34:36;7.53;;;5.47;;
4428;SDS011;2227;47.810;8.810;2022-11-15T09:37:03;7.60;;;5.60;;
4428;SDS011;2227;47.810;8.810;2022-11-15T09:39:29;8.63;;;6.05;;
4428;SDS011;2227;47.810;8.810;2022-11-15T09:41:58;7.63;;;5.97;;
4428;SDS011;2227;47.810;8.810;2022-11-15T09:50:12;11.25;;;8.75;;
4428;SDS011;2227;47.810;8.810;2022-11-15T09:52:44;11.05;;;8.98;;
4428;SDS011;2227;47.810;8.810;2022-11-15T09:55:12;11.43;;;9.68;;
4428;SDS011;2227;47.810;8.810;2022-11-15T09:57:53;12.68;;;10.15;;
4428;SDS011;2227;47.810;8.810;2022-11-15T10:00:38;12.43;;;9.80;;
4428;SDS011;2227;47.810;8.810;2022-11-15T10:03:16;12.40;;;10.88;;
4428;SDS011;2227;47.810;8.810;2022-11-15T10:05:50;13.38;;;11.73;;
4428;SDS011;2227;47.810;8.810;2022-11-15T10:08:40;13.95;;;11.52;;
4428;SDS011;2227;47.810;8.810;2022-11-15T10:11:18;14.05;;;11.27;;
4428;SDS011;2227;47.810;8.810;2022-11-15T10:14:16;14.45;;;11.40;;
4428;SDS011;2227;47.810;8.810;2022-11-15T10:16:59;15.82;;;13.02;;
4428;SDS011;2227;47.810;8.810;2022-11-15T10:22:30;18.05;;;12.90;;
4428;SDS011;2227;47.810;8.810;2022-11-15T10:25:10;17.30;;;12.88;;
4428;SDS011;2227;47.810;8.810;2022-11-15T10:27:38;16.50;;;11.68;;
4428;SDS011;2227;47.810;8.810;2022-11-15T10:30:11;18.95;;;12.40;;
4428;SDS011;2227;47.810;8.810;2022-11-15T10:32:40;20.60;;;13.63;;
4428;SDS011;2227;47.810;8.810;2022-11-15T10:35:26;18.52;;;13.27;;
4428;SDS011;2227;47.810;8.810;2022-11-15T10:38:06;19.60;;;12.95;;
4428;SDS011;2227;47.810;8.810;2022-11-15T10:40:35;21.55;;;15.45;;
4428;SDS011;2227;47.810;8.810;2022-11-15T10:45:35;23.02;;;14.95;;
4428;SDS011;2227;47.810;8.810;2022-11-15T10:50:39;26.25;;;15.57;;
4428;SDS011;2227;47.810;8.810;2022-11-15T10:53:28;28.80;;;16.20;;
4428;SDS011;2227;47.810;8.810;2022-11-15T10:56:00;29.23;;;17.60;;
4428;SDS011;2227;47.810;8.810;2022-11-15T10:58:44;27.50;;;17.38;;
4428;SDS011;2227;47.810;8.810;2022-11-15T11:01:19;26.52;;;16.83;;
4428;SDS011;2227;47.810;8.810;2022-11-15T11:03:59;28.05;;;17.63;;
4428;SDS011;2227;47.810;8.810;2022-11-15T11:06:29;28.52;;;17.30;;
4428;SDS011;2227;47.810;8.810;2022-11-15T11:09:03;27.00;;;17.55;;
4428;SDS011;2227;47.810;8.810;2022-11-15T11:11:44;26.85;;;17.08;;
4428;SDS011;2227;47.810;8.810;2022-11-15T11:14:19;29.45;;;17.40;;
4428;SDS011;2227;47.810;8.810;2022-11-15T11:25:35;32.90;;;19.70;;
4428;SDS011;2227;47.810;8.810;2022-11-15T11:37:02;33.05;;;19.17;;
4428;SDS011;2227;47.810;8.810;2022-11-15T11:42:33;30.25;;;19.40;;
4428;SDS011;2227;47.810;8.810;2022-11-15T11:51:12;31.85;;;18.00;;
4428;SDS011;2227;47.810;8.810;2022-11-15T11:54:00;29.42;;;17.83;;
4428;SDS011;2227;47.810;8.810;2022-11-15T11:56:32;27.35;;;17.02;;
4428;SDS011;2227;47.810;8.810;2022-11-15T11:59:05;30.90;;;18.90;;
4428;SDS011;2227;47.810;8.810;2022-11-15T12:01:50;30.48;;;18.50;;
4428;SDS011;2227;47.810;8.810;2022-11-15T12:04:35;29.42;;;19.17;;
4428;SDS011;2227;47.810;8.810;2022-11-15T12:12:36;31.58;;;18.73;;
4428;SDS011;2227;47.810;8.810;2022-11-15T12:17:36;31.00;;;19.13;;
4428;SDS011;2227;47.810;8.810;2022-11-15T12:20:22;30.85;;;18.20;;
4428;SDS011;2227;47.810;8.810;2022-11-15T12:23:02;28.60;;;17.98;;
4428;SDS011;2227;47.810;8.810;2022-11-15T12:25:50;29.17;;;18.38;;
4428;SDS011;2227;47.810;8.810;2022-11-15T12:28:50;28.67;;;18.23;;
4428;SDS011;2227;47.810;8.810;2022-11-15T12:31:52;27.80;;;17.67;;
4428;SDS011;2227;47.810;8.810;2022-11-15T12:40:04;26.60;;;16.52;;
4428;SDS011;2227;47.810;8.810;2022-11-15T12:42:57;27.73;;;16.45;;
4428;SDS011;2227;47.810;8.810;2022-11-15T12:45:53;23.13;;;15.05;;
4428;SDS011;2227;47.810;8.810;2022-11-15T12:51:02;29.33;;;16.50;;
4428;SDS011;2227;47.810;8.810;2022-11-15T12:53:30;27.17;;;16.45;;
4428;SDS011;2227;47.810;8.810;2022-11-15T13:06:46;20.92;;;13.25;;
4428;SDS011;2227;47.810;8.810;2022-11-15T13:12:00;23.00;;;14.13;;
4428;SDS011;2227;47.810;8.810;2022-11-15T13:19:56;21.67;;;13.50;;
4428;SDS011;2227;47.810;8.810;2022-11-15T13:22:27;22.27;;;13.57;;
4428;SDS011;2227;47.810;8.810;2022-11-15T13:27:54;21.90;;;14.52;;
4428;SDS011;2227;47.810;8.810;2022-11-15T13:30:27;25.27;;;14.15;;
4428;SDS011;2227;47.810;8.810;2022-11-15T13:32:58;21.63;;;14.65;;
4428;SDS011;2227;47.810;8.810;2022-11-15T13:35:33;23.17;;;14.30;;
4428;SDS011;2227;47.810;8.810;2022-11-15T13:38:05;21.45;;;14.57;;
4428;SDS011;2227;47.810;8.810;2022-11-15T13:40:36;25.83;;;15.07;;
4428;SDS011;2227;47.810;8.810;2022-11-15T13:46:13;28.02;;;14.48;;
4428;SDS011;2227;47.810;8.810;2022-11-15T13:48:44;23.02;;;14.50;;
4428;SDS011;2227;47.810;8.810;2022-11-15T13:54:19;21.23;;;13.73;;
4428;SDS011;2227;47.810;8.810;2022-11-15T13:56:53;20.77;;;13.93;;
4428;SDS011;2227;47.810;8.810;2022-11-15T13:59:37;21.88;;;15.13;;
4428;SDS011;2227;47.810;8.810;2022-11-15T14:02:24;23.27;;;14.45;;
4428;SDS011;2227;47.810;8.810;2022-11-15T14:04:54;21.52;;;14.13;;
4428;SDS011;2227;47.810;8.810;2022-11-15T14:07:25;22.77;;;14.43;;
4428;SDS011;2227;47.810;8.810;2022-11-15T14:09:55;22.15;;;14.52;;
4428;SDS011;2227;47.810;8.810;2022-11-15T14:14:59;25.67;;;14.98;;
4428;SDS011;2227;47.810;8.810;2022-11-15T14:17:45;22.73;;;14.18;;
4428;SDS011;2227;47.810;8.810;2022-11-15T14:20:19;20.83;;;14.65;;
4428;SDS011;2227;47.810;8.810;2022-11-15T14:22:58;25.00;;;13.98;;
4428;SDS011;2227;47.810;8.810;2022-11-15T14:25:52;22.13;;;13.25;;
4428;SDS011;2227;47.810;8.810;2022-11-15T14:30:54;19.17;;;11.85;;
4428;SDS011;2227;47.810;8.810;2022-11-15T14:33:38;22.33;;;13.07;;
4428;SDS011;2227;47.810;8.810;2022-11-15T14:36:19;19.02;;;12.80;;
4428;SDS011;2227;47.810;8.810;2022-11-15T14:38:46;21.17;;;13.40;;
4428;SDS011;2227;47.810;8.810;2022-11-15T14:43:48;21.00;;;12.20;;
4428;SDS011;2227;47.810;8.810;2022-11-15T14:46:16;18.65;;;12.60;;
4428;SDS011;2227;47.810;8.810;2022-11-15T14:48:43;22.50;;;12.98;;
4428;SDS011;2227;47.810;8.810;2022-11-15T14:51:14;18.15;;;12.55;;
4428;SDS011;2227;47.810;8.810;2022-11-15T14:53:43;20.83;;;13.43;;
4428;SDS011;2227;47.810;8.810;2022-11-15T14:56:11;22.38;;;14.25;;
4428;SDS011;2227;47.810;8.810;2022-11-15T14:58:38;23.08;;;15.07;;
4428;SDS011;2227;47.810;8.810;2022-11-15T15:03:47;23.48;;;14.02;;
4428;SDS011;2227;47.810;8.810;2022-11-15T15:06:13;22.00;;;14.52;;
4428;SDS011;2227;47.810;8.810;2022-11-15T15:08:44;23.08;;;13.75;;
4428;SDS011;2227;47.810;8.810;2022-11-15T15:11:18;24.10;;;13.30;;
4428;SDS011;2227;47.810;8.810;2022-11-15T15:13:48;22.48;;;14.77;;
4428;SDS011;2227;47.810;8.810;2022-11-15T15:16:15;20.58;;;12.73;;
4428;SDS011;2227;47.810;8.810;2022-11-15T15:18:42;23.98;;;13.38;;
4428;SDS011;2227;47.810;8.810;2022-11-15T15:21:25;21.83;;;14.60;;
4428;SDS011;2227;47.810;8.810;2022-11-15T15:24:02;20.17;;;13.60;;
4428;SDS011;2227;47.810;8.810;2022-11-15T15:26:29;19.23;;;12.25;;
4428;SDS011;2227;47.810;8.810;2022-11-15T15:28:59;17.23;;;10.80;;
4428;SDS011;2227;47.810;8.810;2022-11-15T15:31:26;17.83;;;11.65;;
4428;SDS011;2227;47.810;8.810;2022-11-15T15:33:53;17.63;;;11.82;;
4428;SDS011;2227;47.810;8.810;2022-11-15T15:36:19;18.33;;;11.23;;
4428;SDS011;2227;47.810;8.810;2022-11-15T15:38:46;17.48;;;11.45;;
4428;SDS011;2227;47.810;8.810;2022-11-15T15:41:14;19.77;;;12.85;;
4428;SDS011;2227;47.810;8.810;2022-11-15T15:43:41;20.65;;;13.52;;
4428;SDS011;2227;47.810;8.810;2022-11-15T15:46:12;18.75;;;12.38;;
4428;SDS011;2227;47.810;8.810;2022-11-15T15:48:40;18.17;;;12.70;;
4428;SDS011;2227;47.810;8.810;2022-11-15T15:51:08;20.10;;;14.32;;
4428;SDS011;2227;47.810;8.810;2022-11-15T15:53:45;23.05;;;14.25;;
4428;SDS011;2227;47.810;8.810;2022-11-15T15:56:12;23.05;;;15.43;;
4428;SDS011;2227;47.810;8.810;2022-11-15T15:58:38;23.70;;;14.85;;
4428;SDS011;2227;47.810;8.810;2022-11-15T16:01:05;23.80;;;16.75;;
4428;SDS011;2227;47.810;8.810;2022-11-15T16:03:32;25.58;;;18.05;;
4428;SDS011;2227;47.810;8.810;2022-11-15T16:05:59;24.50;;;15.15;;
4428;SDS011;2227;47.810;8.810;2022-11-15T16:08:25;25.85;;;16.17;;
4428;SDS011;2227;47.810;8.810;2022-11-15T16:11:16;25.88;;;15.77;;
4428;SDS011;2227;47.810;8.810;2022-11-15T16:13:42;23.58;;;14.85;;
4428;SDS011;2227;47.810;8.810;2022-11-15T16:16:09;27.10;;;16.90;;
4428;SDS011;2227;47.810;8.810;2022-11-15T16:18:39;35.75;;;24.88;;
4428;SDS011;2227;47.810;8.810;2022-11-15T16:21:07;31.63;;;20.02;;
4428;SDS011;2227;47.810;8.810;2022-11-15T16:23:34;28.10;;;17.08;;
4428;SDS011;2227;47.810;8.810;2022-11-15T16:26:01;26.48;;;17.33;;
4428;SDS011;2227;47.810;8.810;2022-11-15T16:28:30;27.45;;;17.20;;
4428;SDS011;2227;47.810;8.810;2022-11-15T16:31:00;26.15;;;18.15;;
4428;SDS011;2227;47.810;8.810;2022-11-15T16:33:27;27.42;;;16.33;;
4428;SDS011;2227;47.810;8.810;2022-11-15T16:35:53;24.10;;;15.48;;
4428;SDS011;2227;47.810;8.810;2022-11-15T16:38:20;91.43;;;44.65;;
4428;SDS011;2227;47.810;8.810;2022-11-15T16:40:47;156.93;;;81.10;;
4428;SDS011;2227;47.810;8.810;2022-11-15T16:43:14;46.58;;;28.77;;
4428;SDS011;2227;47.810;8.810;2022-11-15T16:45:41;23.63;;;15.90;;
4428;SDS011;2227;47.810;8.810;2022-11-15T16:48:21;25.60;;;17.05;;
4428;SDS011;2227;47.810;8.810;2022-11-15T16:50:53;30.35;;;18.42;;
4428;SDS011;2227;47.810;8.810;2022-11-15T16:53:21;36.40;;;19.88;;
4428;SDS011;2227;47.810;8.810;2022-11-15T16:55:49;26.05;;;17.63;;
4428;SDS011;2227;47.810;8.810;2022-11-15T16:58:15;26.58;;;18.42;;
4428;SDS011;2227;47.810;8.810;2022-11-15T17:00:42;27.73;;;18.98;;
4428;SDS011;2227;47.810;8.810;2022-11-15T17:03:09;25.40;;;17.55;;
4428;SDS011;2227;47.810;8.810;2022-11-15T17:05:37;25.13;;;17.85;;
4428;SDS011;2227;47.810;8.810;2022-11-15T17:08:03;25.35;;;17.75;;
4428;SDS011;2227;47.810;8.810;2022-11-15T17:10:31;50.85;;;45.42;;
4428;SDS011;2227;47.810;8.810;2022-11-15T17:12:58;25.48;;;21.05;;
4428;SDS011;2227;47.810;8.810;2022-11-15T17:15:25;24.33;;;18.50;;
4428;SDS011;2227;47.810;8.810;2022-11-15T17:17:52;23.83;;;17.85;;
4428;SDS011;2227;47.810;8.810;2022-11-15T17:20:20;32.38;;;28.83;;
4428;SDS011;2227;47.810;8.810;2022-11-15T17:22:49;28.85;;;21.63;;
4428;SDS011;2227;47.810;8.810;2022-11-15T17:25:18;24.40;;;15.85;;
4428;SDS011;2227;47.810;8.810;2022-11-15T17:27:45;24.67;;;21.17;;
4428;SDS011;2227;47.810;8.810;2022-11-15T17:30:13;26.42;;;18.90;;
4428;SDS011;2227;47.810;8.810;2022-11-15T17:32:41;25.08;;;14.98;;
4428;SDS011;2227;47.810;8.810;2022-11-15T17:37:44;35.90;;;14.45;;
4428;SDS011;2227;47.810;8.810;2022-11-15T17:40:10;23.40;;;13.60;;
4428;SDS011;2227;47.810;8.810;2022-11-15T17:42:39;20.02;;;13.35;;
4428;SDS011;2227;47.810;8.810;2022-11-15T17:45:06;19.75;;;12.82;;
4428;SDS011;2227;47.810;8.810;2022-11-15T17:47:35;20.95;;;13.07;;
4428;SDS011;2227;47.810;8.810;2022-11-15T17:50:02;18.27;;;12.90;;
4428;SDS011;2227;47.810;8.810;2022-11-15T17:52:29;17.30;;;12.73;;
4428;SDS011;2227;47.810;8.810;2022-11-15T17:54:56;16.90;;;12.35;;
4428;SDS011;2227;47.810;8.810;2022-11-15T17:57:23;20.52;;;13.85;;
4428;SDS011;2227;47.810;8.810;2022-11-15T17:59:49;24.27;;;16.77;;
4428;SDS011;2227;47.810;8.810;2022-11-15T18:02:16;21.38;;;15.38;;
4428;SDS011;2227;47.810;8.810;2022-11-15T18:04:44;17.75;;;13.07;;
4428;SDS011;2227;47.810;8.810;2022-11-15T18:07:11;17.27;;;14.10;;
4428;SDS011;2227;47.810;8.810;2022-11-15T18:09:39;20.40;;;14.68;;
4428;SDS011;2227;47.810;8.810;2022-11-15T18:12:09;20.38;;;13.43;;
4428;SDS011;2227;47.810;8.810;2022-11-15T18:14:36;18.05;;;13.90;;
4428;SDS011;2227;47.810;8.810;2022-11-15T18:17:03;17.42;;;13.38;;
4428;SDS011;2227;47.810;8.810;2022-11-15T18:19:29;20.95;;;14.93;;
4428;SDS011;2227;47.810;8.810;2022-11-15T18:21:56;24.83;;;17.67;;
4428;SDS011;2227;47.810;8.810;2022-11-15T18:24:26;25.17;;;14.75;;
4428;SDS011;2227;47.810;8.810;2022-11-15T18:26:53;17.42;;;13.00;;
4428;SDS011;2227;47.810;8.810;2022-11-15T18:29:20;16.58;;;11.73;;
4428;SDS011;2227;47.810;8.810;2022-11-15T18:31:49;16.58;;;12.40;;
4428;SDS011;2227;47.810;8.810;2022-11-15T18:34:21;18.35;;;14.00;;
4428;SDS011;2227;47.810;8.810;2022-11-15T18:36:51;14.10;;;10.07;;
4428;SDS011;2227;47.810;8.810;2022-11-15T18:39:18;13.98;;;10.02;;
4428;SDS011;2227;47.810;8.810;2022-11-15T18:41:45;14.38;;;9.35;;
4428;SDS011;2227;47.810;8.810;2022-11-15T18:44:12;13.85;;;9.75;;
4428;SDS011;2227;47.810;8.810;2022-11-15T18:46:39;14.25;;;9.68;;
4428;SDS011;2227;47.810;8.810;2022-11-15T18:49:07;17.15;;;11.73;;
4428;SDS011;2227;47.810;8.810;2022-11-15T18:51:35;11.20;;;7.20;;
4428;SDS011;2227;47.810;8.810;2022-11-15T18:54:07;10.90;;;7.55;;
4428;SDS011;2227;47.810;8.810;2022-11-15T18:56:35;10.73;;;7.47;;
4428;SDS011;2227;47.810;8.810;2022-11-15T18:59:03;11.15;;;6.75;;
4428;SDS011;2227;47.810;8.810;2022-11-15T19:01:31;10.60;;;7.13;;
4428;SDS011;2227;47.810;8.810;2022-11-15T19:04:02;10.27;;;6.60;;
4428;SDS011;2227;47.810;8.810;2022-11-15T19:06:35;9.18;;;6.65;;
4428;SDS011;2227;47.810;8.810;2022-11-15T19:09:03;10.77;;;6.95;;
4428;SDS011;2227;47.810;8.810;2022-11-15T19:11:31;10.45;;;6.10;;
4428;SDS011;2227;47.810;8.810;2022-11-15T19:14:01;8.60;;;5.68;;
4428;SDS011;2227;47.810;8.810;2022-11-15T19:16:34;9.25;;;6.18;;
4428;SDS011;2227;47.810;8.810;2022-11-15T19:19:03;10.23;;;5.60;;
4428;SDS011;2227;47.810;8.810;2022-11-15T19:21:31;10.18;;;6.05;;
4428;SDS011;2227;47.810;8.810;2022-11-15T19:23:59;8.55;;;5.30;;
4428;SDS011;2227;47.810;8.810;2022-11-15T19:26:26;8.05;;;5.22;;
4428;SDS011;2227;47.810;8.810;2022-11-15T19:28:54;8.30;;;6.35;;
4428;SDS011;2227;47.810;8.810;2022-11-15T19:31:23;20.50;;;17.70;;
4428;SDS011;2227;47.810;8.810;2022-11-15T19:33:52;15.55;;;12.73;;
4428;SDS011;2227;47.810;8.810;2022-11-15T19:36:26;15.73;;;11.18;;
4428;SDS011;2227;47.810;8.810;2022-11-15T19:38:54;15.77;;;10.77;;
4428;SDS011;2227;47.810;8.810;2022-11-15T19:41:22;16.58;;;10.68;;
4428;SDS011;2227;47.810;8.810;2022-11-15T19:43:49;14.77;;;10.48;;
4428;SDS011;2227;47.810;8.810;2022-11-15T19:46:21;13.88;;;9.45;;
4428;SDS011;2227;47.810;8.810;2022-11-15T19:48:49;13.65;;;9.35;;
4428;SDS011;2227;47.810;8.810;2022-11-15T19:51:17;13.02;;;9.27;;
4428;SDS011;2227;47.810;8.810;2022-11-15T19:53:49;27.23;;;14.05;;
4428;SDS011;2227;47.810;8.810;2022-11-15T19:56:18;45.35;;;22.90;;
4428;SDS011;2227;47.810;8.810;2022-11-15T19:58:49;34.90;;;18.05;;
4428;SDS011;2227;47.810;8.810;2022-11-15T20:01:18;22.58;;;13.95;;
4428;SDS011;2227;47.810;8.810;2022-11-15T20:03:47;20.45;;;13.57;;
4428;SDS011;2227;47.810;8.810;2022-11-15T20:06:18;20.80;;;13.20;;
4428;SDS011;2227;47.810;8.810;2022-11-15T20:08:47;22.33;;;13.43;;
4428;SDS011;2227;47.810;8.810;2022-11-15T20:11:14;13.88;;;9.43;;
4428;SDS011;2227;47.810;8.810;2022-11-15T20:13:42;16.38;;;12.10;;
4428;SDS011;2227;47.810;8.810;2022-11-15T20:16:13;11.23;;;7.53;;
4428;SDS011;2227;47.810;8.810;2022-11-15T20:18:50;9.40;;;8.13;;
4428;SDS011;2227;47.810;8.810;2022-11-15T20:21:18;10.75;;;6.75;;
4428;SDS011;2227;47.810;8.810;2022-11-15T20:23:45;8.75;;;6.90;;
4428;SDS011;2227;47.810;8.810;2022-11-15T20:26:13;12.35;;;6.70;;
4428;SDS011;2227;47.810;8.810;2022-11-15T20:28:41;10.82;;;6.18;;
4428;SDS011;2227;47.810;8.810;2022-11-15T20:31:09;11.32;;;7.82;;
4428;SDS011;2227;47.810;8.810;2022-11-15T20:33:37;12.07;;;8.02;;
4428;SDS011;2227;47.810;8.810;2022-11-15T20:36:05;12.23;;;8.52;;
4428;SDS011;2227;47.810;8.810;2022-11-15T20:38:33;13.10;;;9.13;;
4428;SDS011;2227;47.810;8.810;2022-11-15T20:41:00;13.10;;;8.50;;
4428;SDS011;2227;47.810;8.810;2022-11-15T20:43:26;133.98;;;60.67;;
4428;SDS011;2227;47.810;8.810;2022-11-15T20:45:53;58.60;;;31.95;;
4428;SDS011;2227;47.810;8.810;2022-11-15T20:48:20;67.80;;;37.20;;
4428;SDS011;2227;47.810;8.810;2022-11-15T20:50:47;19.63;;;12.10;;
4428;SDS011;2227;47.810;8.810;2022-11-15T20:53:16;12.07;;;9.13;;
4428;SDS011;2227;47.810;8.810;2022-11-15T20:55:45;21.10;;;14.88;;
4428;SDS011;2227;47.810;8.810;2022-11-15T20:58:13;6.78;;;4.30;;
4428;SDS011;2227;47.810;8.810;2022-11-15T21:00:41;7.05;;;4.05;;
4428;SDS011;2227;47.810;8.810;2022-11-15T21:03:10;8.13;;;6.15;;
4428;SDS011;2227;47.810;8.810;2022-11-15T21:05:38;12.07;;;7.50;;
4428;SDS011;2227;47.810;8.810;2022-11-15T21:08:06;13.80;;;9.77;;
4428;SDS011;2227;47.810;8.810;2022-11-15T21:10:34;15.32;;;10.25;;
4428;SDS011;2227;47.810;8.810;2022-11-15T21:13:19;16.35;;;11.93;;
4428;SDS011;2227;47.810;8.810;2022-11-15T21:15:46;19.08;;;12.60;;
4428;SDS011;2227;47.810;8.810;2022-11-15T21:18:13;26.90;;;16.20;;
4428;SDS011;2227;47.810;8.810;2022-11-15T21:20:40;20.15;;;12.07;;
4428;SDS011;2227;47.810;8.810;2022-11-15T21:23:07;21.50;;;14.40;;
4428;SDS011;2227;47.810;8.810;2022-11-15T21:25:34;19.88;;;14.23;;
4428;SDS011;2227;47.810;8.810;2022-11-15T21:28:01;14.18;;;9.90;;
4428;SDS011;2227;47.810;8.810;2022-11-15T21:30:28;6.38;;;4.30;;
4428;SDS011;2227;47.810;8.810;2022-11-15T21:32:55;5.82;;;3.63;;
4428;SDS011;2227;47.810;8.810;2022-11-15T21:35:22;8.70;;;4.05;;
4428;SDS011;2227;47.810;8.810;2022-11-15T21:37:49;10.02;;;5.75;;